Stations météo

réclame
Mon MeteoGroup
Chamonix, France (7469): Température de l'air & dewpoint: 15.06.2019 00:00:00 - 21.06.2019 00:00:00 (CEST)Chamonix, France (7469): Vitesse du vent & gusts: 15.06.2019 00:00:00 - 21.06.2019 00:00:00 (CEST)Chamonix, France (7469): Direction du vent: 15.06.2019 00:00:00 - 21.06.2019 00:00:00 (CEST)Chamonix, France (7469): Quantités de précipitations: 15.06.2019 00:00:00 - 21.06.2019 00:00:00 (CEST)
Date & Time tt [°C] td [°C] ff [km/h] ff [knt] fx [km/h] fx [knt] dd rr [mm]
21.06.2019 00:00:00 11,4 10,6 0 0 4 2 N 0,2
20.06.2019 23:00:00 12,2 11,3 0 0 5 3 N 0,0
20.06.2019 22:00:00 13,2 12,1 2 1 8 4 ENE 0,0
20.06.2019 21:00:00 14,4 12,6 2 1 22 12 NE 3,0
20.06.2019 20:00:00 19,0 11,3 5 3 21 11 SW -
20.06.2019 19:00:00 20,7 9,3 4 2 21 11 SW 0,0
20.06.2019 18:00:00 23,4 11,4 4 2 11 6 WSW 0,0
20.06.2019 17:00:00 22,0 9,8 5 3 9 5 NW 0,0
20.06.2019 16:00:00 21,1 10,0 4 2 11 6 WNW 0,0
20.06.2019 15:00:00 20,0 12,0 4 2 18 10 S 0,0
20.06.2019 14:00:00 21,6 11,9 2 1 9 5 E -
20.06.2019 13:00:00 18,4 10,7 2 1 9 5 N 0,0
20.06.2019 12:00:00 16,1 10,6 8 4 22 12 WSW 0,0
20.06.2019 11:00:00 16,9 10,7 4 2 15 8 WSW 0,0
20.06.2019 10:00:00 16,1 10,8 2 1 8 4 SW 0,0
20.06.2019 09:00:00 15,1 12,6 0 0 4 2 N 0,0
20.06.2019 08:00:00 13,4 12,5 0 0 5 3 N -
20.06.2019 07:00:00 12,1 11,6 0 0 5 3 N 0,0
20.06.2019 06:00:00 10,8 10,2 0 0 5 3 N 0,0
20.06.2019 05:00:00 11,0 10,2 0 0 4 2 N 0,0
20.06.2019 04:00:00 11,5 10,6 0 0 5 3 N 0,0
20.06.2019 03:00:00 12,2 10,9 0 0 5 3 N 0,0
20.06.2019 02:00:00 13,2 11,4 0 0 4 2 N -
20.06.2019 01:00:00 14,1 11,8 0 0 2 1 N 0,0
20.06.2019 00:00:00 15,3 11,7 0 0 4 2 N 0,0
19.06.2019 23:00:00 17,0 12,1 0 0 8 4 N 0,0
19.06.2019 22:00:00 18,9 11,2 0 0 16 9 N 0,0
19.06.2019 21:00:00 21,3 11,9 0 0 15 8 N 0,0
19.06.2019 20:00:00 23,2 9,9 4 2 18 10 S -
19.06.2019 19:00:00 24,8 9,9 8 4 24 13 WSW 0,0
19.06.2019 18:00:00 28,2 9,9 8 4 26 14 SSW 0,0
19.06.2019 17:00:00 28,7 8,9 5 3 21 11 S 0,0
19.06.2019 16:00:00 28,8 9,5 4 2 11 6 S 0,0
19.06.2019 15:00:00 27,6 8,0 4 2 18 10 SSE 0,0
19.06.2019 14:00:00 27,3 10,5 8 4 18 10 SSW -
19.06.2019 13:00:00 26,3 8,3 4 2 9 5 S 0,0
19.06.2019 12:00:00 24,3 8,7 4 2 9 5 W 0,0
19.06.2019 11:00:00 22,0 10,2 4 2 16 9 SSW 0,0
19.06.2019 10:00:00 20,6 8,2 4 2 13 7 NW 0,0
19.06.2019 09:00:00 15,0 11,0 2 1 8 4 S 0,0
19.06.2019 08:00:00 11,9 9,5 0 0 4 2 N -
19.06.2019 07:00:00 11,3 8,9 0 0 8 4 N 0,0
19.06.2019 06:00:00 11,1 8,5 2 1 5 3 W 0,0
19.06.2019 05:00:00 11,6 8,1 0 0 9 5 N 0,0
19.06.2019 04:00:00 13,4 8,7 0 0 18 10 N 0,0
19.06.2019 03:00:00 15,0 8,7 4 2 18 10 E 0,0
19.06.2019 02:00:00 15,1 9,2 4 2 28 15 ENE -
19.06.2019 01:00:00 15,1 10,9 9 5 28 15 NE 0,0
19.06.2019 00:00:00 11,6 10,7 0 0 5 3 N 0,0
18.06.2019 23:00:00 12,5 11,4 0 0 4 2 N 0,0
18.06.2019 22:00:00 14,2 12,8 0 0 8 4 N 0,0
18.06.2019 21:00:00 16,0 14,5 2 1 5 3 E 0,0
18.06.2019 20:00:00 16,9 14,9 2 1 9 5 NE -
18.06.2019 19:00:00 18,9 15,6 4 2 13 7 E 0,6
18.06.2019 18:00:00 18,2 15,8 4 2 15 8 E 1,0
18.06.2019 17:00:00 25,1 9,4 8 4 24 13 S 0,0
18.06.2019 16:00:00 26,7 12,0 8 4 22 12 S 0,0
18.06.2019 15:00:00 25,5 10,5 8 4 22 12 SSW 0,0
18.06.2019 14:00:00 24,6 9,7 5 3 21 11 S -
18.06.2019 13:00:00 25,4 9,6 5 3 22 12 S 0,0
18.06.2019 12:00:00 24,9 9,6 5 3 18 10 WSW 0,0
18.06.2019 11:00:00 23,0 9,0 4 2 9 5 S 0,0
18.06.2019 10:00:00 19,1 10,4 0 0 5 3 N 0,0
18.06.2019 09:00:00 14,6 11,2 2 1 5 3 ESE 0,0
18.06.2019 08:00:00 11,2 10,6 4 2 8 4 NNE -
18.06.2019 07:00:00 10,5 9,7 0 0 5 3 N 0,0
18.06.2019 06:00:00 10,6 9,5 2 1 5 3 NNE 0,0
18.06.2019 05:00:00 11,6 10,2 2 1 8 4 N 0,0
18.06.2019 04:00:00 13,0 11,1 0 0 5 3 N 0,0
18.06.2019 03:00:00 14,1 11,4 2 1 4 2 N 0,0
18.06.2019 02:00:00 14,4 11,2 2 1 9 5 N -
18.06.2019 01:00:00 15,4 11,6 4 2 13 7 SSW 0,0
18.06.2019 00:00:00 16,2 10,9 0 0 21 11 N 0,0
17.06.2019 23:00:00 18,9 9,4 5 3 21 11 S 0,0
17.06.2019 22:00:00 18,9 11,0 4 2 21 11 ESE 0,0
17.06.2019 21:00:00 20,8 11,1 5 3 26 14 WSW 0,0
17.06.2019 20:00:00 21,9 11,0 5 3 24 13 S -
17.06.2019 19:00:00 23,8 9,4 4 2 18 10 SW 0,0
17.06.2019 18:00:00 26,8 10,1 8 4 22 12 SSW 0,0
17.06.2019 17:00:00 24,9 9,2 4 2 18 10 SSW 0,0
17.06.2019 16:00:00 27,0 8,4 5 3 22 12 SSW 0,0
17.06.2019 15:00:00 26,3 7,8 8 4 22 12 SSW 0,0
17.06.2019 14:00:00 25,0 9,3 9 5 22 12 SW -
17.06.2019 13:00:00 23,7 11,1 9 5 21 11 SW 0,0
17.06.2019 12:00:00 23,6 9,6 5 3 16 9 SW 0,0
17.06.2019 11:00:00 22,0 7,4 4 2 9 5 SE 0,0
17.06.2019 10:00:00 15,8 9,7 2 1 8 4 E 0,0
17.06.2019 09:00:00 10,9 10,6 0 0 5 3 N 0,0
17.06.2019 08:00:00 7,2 6,9 0 0 5 3 N -
17.06.2019 07:00:00 6,5 6,1 0 0 4 2 N 0,0
17.06.2019 06:00:00 6,5 5,9 0 0 4 2 N 0,0
17.06.2019 05:00:00 7,1 6,5 0 0 5 3 N 0,0
17.06.2019 04:00:00 7,5 6,9 2 1 5 3 NNE 0,0
17.06.2019 03:00:00 8,2 7,4 2 1 4 2 E 0,0
17.06.2019 02:00:00 8,8 7,9 0 0 4 2 N -
17.06.2019 01:00:00 9,6 8,5 2 1 4 2 E 0,0
17.06.2019 00:00:00 10,5 9,1 0 0 4 2 N 0,0
16.06.2019 23:00:00 11,8 9,4 0 0 4 2 N 0,0
16.06.2019 22:00:00 13,8 9,8 0 0 8 4 N 0,0
16.06.2019 21:00:00 16,5 9,9 0 0 16 9 N 0,0
16.06.2019 20:00:00 17,7 10,3 4 2 15 8 NNE -
16.06.2019 19:00:00 20,5 9,4 9 5 18 10 WSW 0,0
16.06.2019 18:00:00 23,8 9,8 8 4 21 11 SW 0,0
16.06.2019 17:00:00 23,4 9,8 9 5 22 12 SSW 0,0
16.06.2019 16:00:00 22,9 8,9 8 4 22 12 SSW 0,0
16.06.2019 15:00:00 22,2 10,0 8 4 28 15 S 0,0
16.06.2019 14:00:00 20,6 10,1 8 4 15 8 SW -
16.06.2019 13:00:00 19,6 10,0 8 4 22 12 SSW 0,0
16.06.2019 12:00:00 18,3 9,6 5 3 18 10 SSW 0,0
16.06.2019 11:00:00 17,4 10,0 4 2 8 4 ESE 0,0
16.06.2019 10:00:00 13,5 10,7 4 2 11 6 ESE 0,0
16.06.2019 09:00:00 11,8 11,3 2 1 8 4 S 0,0
16.06.2019 08:00:00 9,8 9,2 0 0 5 3 N -
16.06.2019 07:00:00 10,1 9,6 0 0 5 3 N 0,0
16.06.2019 06:00:00 9,9 9,4 0 0 4 2 N 0,0
16.06.2019 05:00:00 10,2 9,7 2 1 8 4 N 0,0
16.06.2019 04:00:00 10,2 9,7 0 0 4 2 N 0,0
16.06.2019 03:00:00 10,2 9,7 0 0 5 3 N 0,0
16.06.2019 02:00:00 10,4 9,9 2 1 8 4 WSW -
16.06.2019 01:00:00 10,1 9,6 0 0 4 2 N 0,0
16.06.2019 00:00:00 9,9 9,3 0 0 5 3 N 0,0
15.06.2019 23:00:00 10,2 9,6 0 0 4 2 N 0,2
15.06.2019 22:00:00 10,6 9,7 0 0 5 3 N 0,0
15.06.2019 21:00:00 11,6 10,8 2 1 5 3 N 0,0
15.06.2019 20:00:00 11,9 11,1 2 1 9 5 ENE -
15.06.2019 19:00:00 11,7 10,6 2 1 15 8 SSW 1,0
15.06.2019 18:00:00 11,2 10,1 2 1 78 42 ESE 10,0
15.06.2019 17:00:00 21,1 11,4 4 2 22 12 SSW 0,0
15.06.2019 16:00:00 25,6 11,4 5 3 21 11 SSW 0,0
15.06.2019 15:00:00 24,5 11,1 5 3 21 11 WSW 0,0
15.06.2019 14:00:00 22,2 12,7 9 5 26 14 SW -
15.06.2019 13:00:00 21,8 10,6 8 4 22 12 SSW 0,0
15.06.2019 12:00:00 21,7 11,4 8 4 18 10 SW 0,0
15.06.2019 11:00:00 19,1 12,8 4 2 16 9 WSW 0,0
15.06.2019 10:00:00 16,9 12,2 4 2 13 7 WSW 0,0
15.06.2019 09:00:00 15,6 12,5 4 2 11 6 SW 0,0
15.06.2019 08:00:00 14,7 12,4 4 2 9 5 SW -
15.06.2019 07:00:00 14,1 12,5 0 0 8 4 N 0,0
15.06.2019 06:00:00 13,9 12,1 2 1 8 4 S 0,0
15.06.2019 05:00:00 14,5 11,5 0 0 13 7 N 0,0
15.06.2019 04:00:00 15,1 11,1 2 1 15 8 NNW 0,0
15.06.2019 03:00:00 15,9 10,6 5 3 16 9 WSW 0,0
15.06.2019 02:00:00 16,9 8,1 2 1 15 8 WSW -
15.06.2019 01:00:00 19,7 6,8 4 2 35 19 SE 0,0
15.06.2019 00:00:00 21,0 6,1 8 4 48 26 E 0,0

tt = Température de l'air
td = dewpoint
ff = Vitesse du vent
fx = gusts
dd = Direction du vent
rr = Quantités de précipitations

stations d'obs. à proximité